Time;durP1;ratioP1;P1;durP2;ratioP2;P2;SDS_P1;SDS_P2;PMS_P1;PMS_P2;Temp;Humidity;BMP_temperature;BMP_pressure;BME280_temperature;BME280_humidity;BME280_pressure;Samples;Min_cycle;Max_cycle;Signal;HPM_P1;HPM_P2
2021/08/24 00:00:56;;;;;;;2.47;1.40;;;24.90;57.10;;;;;;6264320;23;20381;-83
2021/08/24 00:03:22;;;;;;;2.53;1.50;;;24.90;57.10;;;;;;6262579;22;20162;-82
2021/08/24 00:05:48;;;;;;;2.00;1.50;;;24.90;57.10;;;;;;6264187;22;20147;-83
2021/08/24 00:08:15;;;;;;;2.23;1.40;;;24.90;57.10;;;;;;6262631;23;20370;-83
2021/08/24 00:10:53;;;;;;;2.33;1.43;;;24.90;57.10;;;;;;6262515;23;20377;-83
2021/08/24 00:13:20;;;;;;;1.90;1.40;;;24.90;57.10;;;;;;6263793;22;20357;-83
2021/08/24 00:15:48;;;;;;;1.60;1.37;;;24.90;57.10;;;;;;6264520;22;20413;-83
2021/08/24 00:18:15;;;;;;;1.60;1.50;;;24.90;57.10;;;;;;6263615;22;20370;-83
2021/08/24 00:20:42;;;;;;;1.53;1.20;;;24.90;57.10;;;;;;6263834;22;20366;-83
2021/08/24 00:23:11;;;;;;;1.83;1.40;;;24.90;57.10;;;;;;6264450;22;20488;-83
2021/08/24 00:25:38;;;;;;;2.20;2.00;;;24.90;57.10;;;;;;6263075;23;20420;-82
2021/08/24 00:28:06;;;;;;;1.93;1.50;;;24.90;57.10;;;;;;6262637;23;20506;-83
2021/08/24 00:30:31;;;;;;;2.70;1.47;;;24.90;57.20;;;;;;6262806;23;20419;-83
2021/08/24 00:32:57;;;;;;;2.10;1.60;;;24.90;57.20;;;;;;6264319;23;20377;-83
2021/08/24 00:35:23;;;;;;;2.40;1.50;;;24.90;57.10;;;;;;6262923;23;20205;-83
2021/08/24 00:37:49;;;;;;;2.27;1.70;;;24.90;57.20;;;;;;6264159;23;20460;-83
2021/08/24 00:40:15;;;;;;;1.73;1.50;;;24.90;57.20;;;;;;6287613;22;20573;-83
2021/08/24 00:42:43;;;;;;;1.90;1.50;;;24.90;57.10;;;;;;6287061;22;20483;-83
2021/08/24 00:45:11;;;;;;;1.47;1.27;;;24.90;57.20;;;;;;6261582;23;20751;-83
2021/08/24 00:47:41;;;;;;;1.70;1.50;;;24.90;57.10;;;;;;6261927;23;20388;-84
2021/08/24 00:50:16;;;;;;;1.70;1.30;;;24.90;57.10;;;;;;6237210;23;20405;-84
2021/08/24 00:52:42;;;;;;;2.93;1.70;;;24.90;57.10;;;;;;6262984;23;20386;-84
2021/08/24 00:55:08;;;;;;;1.93;1.57;;;24.80;57.10;;;;;;6287703;22;20420;-84
2021/08/24 00:57:34;;;;;;;1.90;1.50;;;24.80;57.00;;;;;;6263024;23;20385;-84
2021/08/24 01:00:02;;;;;;;1.80;1.60;;;24.90;57.20;;;;;;6264799;22;20162;-84
2021/08/24 01:02:28;;;;;;;2.00;1.50;;;24.90;57.10;;;;;;6288772;22;20180;-84
2021/08/24 01:04:54;;;;;;;1.80;1.40;;;24.80;57.00;;;;;;6264521;23;20380;-84
2021/08/24 01:07:26;;;;;;;1.70;1.30;;;24.90;57.10;;;;;;6263502;23;20159;-84
2021/08/24 01:10:34;;;;;;;1.40;1.20;;;24.80;57.00;;;;;;6263902;23;20376;-84
2021/08/24 01:13:07;;;;;;;1.80;1.20;;;24.80;57.00;;;;;;6248764;23;20463;-84
2021/08/24 01:15:45;;;;;;;2.03;1.83;;;24.80;57.10;;;;;;6263799;23;20417;-84
2021/08/24 01:18:41;;;;;;;1.77;1.43;;;24.80;57.10;;;;;;6265061;22;20354;-84
2021/08/24 01:21:43;;;;;;;1.63;1.30;;;24.80;57.00;;;;;;6265162;22;20358;-84
2021/08/24 01:24:32;;;;;;;3.07;1.80;;;24.80;57.00;;;;;;6263775;22;20404;-84
2021/08/24 01:27:11;;;;;;;1.67;1.50;;;24.80;57.10;;;;;;6263220;23;20366;-83
2021/08/24 01:29:49;;;;;;;2.50;1.50;;;24.80;57.10;;;;;;6263254;23;20370;-84
2021/08/24 01:32:49;;;;;;;1.33;1.23;;;24.80;57.10;;;;;;6262244;23;20381;-84
2021/08/24 01:35:45;;;;;;;1.60;1.40;;;24.80;57.00;;;;;;6263247;22;20786;-84
2021/08/24 01:38:18;;;;;;;1.60;1.20;;;24.80;57.00;;;;;;6264409;22;20353;-84
2021/08/24 01:40:54;;;;;;;1.60;1.27;;;24.80;57.10;;;;;;6262562;23;20404;-84
2021/08/24 01:43:31;;;;;;;1.40;1.27;;;24.70;57.00;;;;;;6263139;23;20369;-84
2021/08/24 01:46:26;;;;;;;2.33;1.77;;;24.70;57.00;;;;;;6263475;23;20468;-84
2021/08/24 01:48:58;;;;;;;2.00;1.40;;;24.80;57.00;;;;;;6264011;23;20364;-84
2021/08/24 01:51:26;;;;;;;2.03;1.50;;;24.80;57.10;;;;;;6261946;23;20405;-84
2021/08/24 01:54:02;;;;;;;1.50;1.30;;;24.80;57.00;;;;;;6262436;23;20389;-84
2021/08/24 01:56:38;;;;;;;1.93;1.50;;;24.80;57.00;;;;;;6263175;22;20419;-84
2021/08/24 01:59:10;;;;;;;1.83;1.47;;;24.80;57.00;;;;;;6288317;22;20381;-84
2021/08/24 02:01:44;;;;;;;1.60;1.40;;;24.80;57.00;;;;;;6263009;22;20357;-84
2021/08/24 02:04:17;;;;;;;1.70;1.17;;;24.80;57.00;;;;;;6263135;22;20358;-84
2021/08/24 02:06:45;;;;;;;2.33;1.60;;;24.80;57.00;;;;;;6264019;22;20357;-84
2021/08/24 02:09:40;;;;;;;1.40;1.27;;;24.70;56.90;;;;;;6261069;23;20381;-84
2021/08/24 02:12:08;;;;;;;1.97;1.60;;;24.70;56.90;;;;;;6258686;23;20382;-84
2021/08/24 02:14:38;;;;;;;3.40;1.80;;;24.70;56.90;;;;;;6262291;23;20460;-84
2021/08/24 02:17:06;;;;;;;1.77;1.50;;;24.70;56.90;;;;;;6262999;23;20400;-84
2021/08/24 02:19:43;;;;;;;1.50;1.30;;;24.70;56.80;;;;;;6264549;22;20383;-84
2021/08/24 02:22:20;;;;;;;1.47;1.37;;;24.80;56.90;;;;;;6262501;23;20374;-84
2021/08/24 02:24:53;;;;;;;1.60;1.20;;;24.70;56.80;;;;;;6262372;23;20381;-84
2021/08/24 02:27:25;;;;;;;3.63;1.70;;;24.70;56.80;;;;;;6264515;22;20364;-84
2021/08/24 02:29:51;;;;;;;1.80;1.57;;;24.70;56.80;;;;;;6263973;22;20361;-83
2021/08/24 02:32:34;;;;;;;2.07;1.70;;;24.70;56.80;;;;;;6262739;23;20547;-84
2021/08/24 02:35:05;;;;;;;2.30;1.80;;;24.70;57.20;;;;;;6236432;23;20204;-84
2021/08/24 02:38:10;;;;;;;1.70;1.50;;;24.70;56.60;;;;;;6261547;23;20511;-84
2021/08/24 02:40:52;;;;;;;2.03;1.83;;;24.70;56.60;;;;;;6263575;23;20354;-84
2021/08/24 02:43:24;;;;;;;1.90;1.70;;;24.70;56.60;;;;;;6262717;22;20372;-84
2021/08/24 02:46:16;;;;;;;2.00;1.73;;;24.60;56.50;;;;;;6261885;23;20396;-84
2021/08/24 02:48:47;;;;;;;2.70;2.10;;;24.70;56.50;;;;;;6249547;23;20389;-84
2021/08/24 02:51:15;;;;;;;3.10;2.80;;;24.60;56.40;;;;;;6261899;23;20436;-84
2021/08/24 02:53:44;;;;;;;2.13;1.80;;;24.60;56.40;;;;;;6261882;23;20417;-84
2021/08/24 02:56:10;;;;;;;3.30;1.90;;;24.60;56.30;;;;;;6261597;23;20428;-84
2021/08/24 02:58:36;;;;;;;3.20;2.13;;;24.60;56.30;;;;;;6287310;22;20381;-84
2021/08/24 03:01:01;;;;;;;2.37;1.87;;;24.60;56.30;;;;;;6286707;22;20150;-84
2021/08/24 03:03:27;;;;;;;2.70;1.93;;;24.60;56.30;;;;;;6263093;22;20202;-84
2021/08/24 03:05:53;;;;;;;2.50;2.07;;;24.60;56.30;;;;;;6287100;22;20154;-84
2021/08/24 03:08:21;;;;;;;2.57;2.03;;;24.60;56.20;;;;;;6262048;22;20206;-84
2021/08/24 03:10:48;;;;;;;2.63;1.80;;;24.60;56.20;;;;;;6263356;23;20154;-84
2021/08/24 03:13:26;;;;;;;2.23;1.90;;;24.60;56.20;;;;;;6260517;23;20397;-84
2021/08/24 03:16:15;;;;;;;2.87;2.30;;;24.60;56.20;;;;;;6260851;23;20749;-84
2021/08/24 03:18:48;;;;;;;2.10;1.83;;;24.60;56.10;;;;;;6260436;23;20373;-84
2021/08/24 03:21:24;;;;;;;2.07;1.80;;;24.60;56.20;;;;;;6263178;22;20372;-83
2021/08/24 03:23:51;;;;;;;2.10;1.90;;;24.50;56.00;;;;;;6262346;23;20369;-84
2021/08/24 03:26:26;;;;;;;2.43;2.00;;;24.50;56.00;;;;;;6262886;22;20379;-83
2021/08/24 03:28:52;;;;;;;2.37;1.90;;;24.50;56.00;;;;;;6260551;23;20372;-84
2021/08/24 03:31:28;;;;;;;3.60;2.87;;;24.50;56.00;;;;;;6262410;23;20405;-84
2021/08/24 03:33:55;;;;;;;2.57;2.00;;;24.50;56.00;;;;;;6262625;22;20381;-84
2021/08/24 03:36:20;;;;;;;2.30;2.00;;;24.50;56.00;;;;;;6262822;23;20416;-84
2021/08/24 03:38:46;;;;;;;2.90;2.03;;;24.50;56.00;;;;;;6261200;23;20391;-84
2021/08/24 03:41:13;;;;;;;2.73;2.10;;;24.50;55.90;;;;;;6260398;23;20151;-85
2021/08/24 03:43:39;;;;;;;2.27;1.83;;;24.50;55.90;;;;;;6235587;23;20153;-83
2021/08/24 03:46:05;;;;;;;2.07;1.70;;;24.50;55.90;;;;;;6264920;22;20376;-83
2021/08/24 03:48:31;;;;;;;2.73;2.00;;;24.50;55.90;;;;;;6266395;22;20373;-84
2021/08/24 03:50:57;;;;;;;2.83;2.13;;;24.50;55.80;;;;;;6245781;22;20408;-83
2021/08/24 03:53:22;;;;;;;2.70;2.20;;;24.50;55.80;;;;;;6235764;23;20155;-83
2021/08/24 03:55:48;;;;;;;2.70;2.20;;;24.50;55.80;;;;;;6236288;23;20414;-83
2021/08/24 03:58:14;;;;;;;2.20;1.90;;;24.50;55.70;;;;;;6207617;23;20177;-83
2021/08/24 04:00:44;;;;;;;2.17;1.97;;;24.40;55.60;;;;;;6235575;23;20214;-83
2021/08/24 04:03:09;;;;;;;2.37;2.00;;;24.50;55.60;;;;;;6208197;23;20151;-83
2021/08/24 04:05:35;;;;;;;2.43;2.23;;;24.40;55.60;;;;;;6231843;23;20386;-84
2021/08/24 04:08:00;;;;;;;2.33;1.67;;;24.50;55.70;;;;;;6206272;23;20155;-84
2021/08/24 04:10:26;;;;;;;2.00;1.70;;;24.40;55.60;;;;;;6205522;23;20208;-84
2021/08/24 04:12:52;;;;;;;1.97;1.70;;;24.40;55.50;;;;;;6231376;23;20154;-83
2021/08/24 04:15:18;;;;;;;2.17;1.50;;;24.40;55.40;;;;;;6205008;23;20190;-83
2021/08/24 04:17:46;;;;;;;2.13;1.93;;;24.40;55.40;;;;;;6231924;23;20175;-83
2021/08/24 04:20:13;;;;;;;2.20;1.93;;;24.50;55.60;;;;;;6230926;23;20422;-84
2021/08/24 04:22:48;;;;;;;3.10;2.70;;;24.40;55.40;;;;;;6231506;23;20362;-84
2021/08/24 04:25:16;;;;;;;2.43;2.10;;;24.40;55.50;;;;;;6231244;23;20354;-83
2021/08/24 04:27:43;;;;;;;2.53;2.10;;;24.40;55.40;;;;;;6230987;23;20374;-83
2021/08/24 04:30:09;;;;;;;1.87;1.50;;;24.40;55.40;;;;;;6204827;23;20410;-83
2021/08/24 04:32:37;;;;;;;2.97;2.20;;;24.40;55.50;;;;;;6205967;23;20808;-83
2021/08/24 04:35:04;;;;;;;1.87;1.73;;;24.40;55.60;;;;;;6206504;23;20469;-83
2021/08/24 04:37:30;;;;;;;2.70;1.93;;;24.50;55.70;;;;;;6232628;23;20373;-84
2021/08/24 04:39:56;;;;;;;3.13;2.10;;;24.40;55.60;;;;;;6206782;23;20449;-84
2021/08/24 04:42:21;;;;;;;2.77;2.50;;;24.50;55.70;;;;;;6233436;23;20401;-84
2021/08/24 04:44:47;;;;;;;2.63;2.37;;;24.50;55.70;;;;;;6236832;23;20170;-84
2021/08/24 04:47:13;;;;;;;2.50;2.23;;;24.50;55.70;;;;;;6209599;23;20499;-84
2021/08/24 04:49:39;;;;;;;2.00;1.80;;;24.50;55.80;;;;;;6208048;23;20163;-84
2021/08/24 04:52:05;;;;;;;2.33;1.90;;;24.50;55.80;;;;;;6237710;23;20369;-84
2021/08/24 04:54:33;;;;;;;2.33;2.13;;;24.50;55.70;;;;;;6235845;23;20143;-84
2021/08/24 04:57:00;;;;;;;2.83;2.20;;;24.50;55.70;;;;;;6209552;23;20404;-84
2021/08/24 04:59:29;;;;;;;2.47;2.03;;;24.50;55.70;;;;;;6236035;23;20378;-84
2021/08/24 05:01:55;;;;;;;2.57;2.00;;;24.50;55.70;;;;;;6233230;23;20703;-83
2021/08/24 05:04:21;;;;;;;3.23;2.10;;;24.50;55.70;;;;;;6207307;23;20374;-83
2021/08/24 05:06:47;;;;;;;2.50;2.10;;;24.50;55.70;;;;;;6237607;23;20146;-83
2021/08/24 05:09:12;;;;;;;2.47;1.87;;;24.50;55.70;;;;;;6208149;23;20476;-83
2021/08/24 05:11:38;;;;;;;1.73;1.60;;;24.50;55.70;;;;;;6235074;23;20144;-83
2021/08/24 05:14:04;;;;;;;2.97;1.90;;;24.50;55.70;;;;;;6235348;23;20225;-83
2021/08/24 05:16:30;;;;;;;2.20;1.80;;;24.50;55.70;;;;;;6234461;23;20173;-83
2021/08/24 05:18:55;;;;;;;2.43;2.03;;;24.50;55.70;;;;;;6235678;23;20206;-84
2021/08/24 05:21:21;;;;;;;2.03;1.73;;;24.50;55.70;;;;;;6236402;23;20507;-83
2021/08/24 05:23:52;;;;;;;2.10;1.70;;;24.50;55.60;;;;;;6207037;23;20151;-84
2021/08/24 05:26:20;;;;;;;2.63;1.70;;;24.50;55.70;;;;;;6232998;23;20135;-84
2021/08/24 05:28:49;;;;;;;2.37;1.87;;;24.50;55.70;;;;;;6233643;23;20394;-84
2021/08/24 05:31:15;;;;;;;2.67;2.03;;;24.50;55.60;;;;;;6206783;23;20383;-84
2021/08/24 05:33:54;;;;;;;;;;;;;;;;;;;;;
2021/08/24 05:36:23;;;;;;;2.10;1.77;;;24.50;55.60;;;;;;6233527;23;20429;-84
2021/08/24 05:38:51;;;;;;;2.37;2.03;;;24.50;55.60;;;;;;6233169;23;20385;-84
2021/08/24 05:41:17;;;;;;;1.97;1.73;;;24.50;55.50;;;;;;6232637;23;20374;-85
2021/08/24 05:43:43;;;;;;;3.70;2.00;;;24.50;55.50;;;;;;6231523;23;20370;-85
2021/08/24 05:46:13;;;;;;;2.33;2.03;;;24.50;55.50;;;;;;6231819;23;20860;-84
2021/08/24 05:48:43;;;;;;;2.50;1.83;;;24.60;55.50;;;;;;6206336;23;20389;-84
2021/08/24 05:51:13;;;;;;;2.20;1.90;;;24.60;56.10;;;;;;6246636;23;20420;-85
2021/08/24 05:53:39;;;;;;;2.90;2.00;;;24.50;55.50;;;;;;6261191;23;20378;-84
2021/08/24 05:56:20;;;;;;;2.30;1.90;;;24.60;55.50;;;;;;6262732;22;20420;-84
2021/08/24 05:58:46;;;;;;;2.07;1.70;;;24.60;55.50;;;;;;6261409;23;20165;-84
2021/08/24 06:01:22;;;;;;;2.00;1.80;;;24.50;55.40;;;;;;6262545;23;20377;-84
2021/08/24 06:03:48;;;;;;;2.10;1.90;;;24.60;55.40;;;;;;6266468;22;20372;-84
2021/08/24 06:06:34;;;;;;;2.27;1.40;;;24.60;55.40;;;;;;6263625;23;20847;-84
2021/08/24 06:09:22;;;;;;;1.83;1.53;;;24.60;55.40;;;;;;6263772;23;20592;-84
2021/08/24 06:11:50;;;;;;;2.77;1.80;;;24.60;55.40;;;;;;6265526;23;20378;-84
2021/08/24 06:14:26;;;;;;;2.53;2.00;;;24.60;55.40;;;;;;6261239;23;20396;-84
2021/08/24 06:17:06;;;;;;;2.90;1.70;;;24.60;55.30;;;;;;6265697;22;20396;-83
2021/08/24 06:19:35;;;;;;;2.60;1.90;;;24.60;55.30;;;;;;6266242;23;20342;-85
2021/08/24 06:22:04;;;;;;;2.03;1.77;;;24.60;55.30;;;;;;6257045;23;20382;-83
2021/08/24 06:24:37;;;;;;;2.03;1.50;;;24.60;55.20;;;;;;6285446;22;20396;-84
2021/08/24 06:27:09;;;;;;;2.27;1.80;;;24.60;55.20;;;;;;6262396;22;20369;-84
2021/08/24 06:29:37;;;;;;;3.17;2.07;;;24.60;55.20;;;;;;6262434;22;20742;-85
2021/08/24 06:32:32;;;;;;;1.57;1.40;;;24.60;55.20;;;;;;6287939;22;20448;-85
2021/08/24 06:35:05;;;;;;;1.97;1.70;;;24.60;55.20;;;;;;6260492;23;20419;-85
2021/08/24 06:37:31;;;;;;;2.80;1.97;;;24.60;55.20;;;;;;6261340;23;20365;-85
2021/08/24 06:40:00;;;;;;;2.60;1.80;;;24.60;55.20;;;;;;6130067;22;20459;-85
2021/08/24 06:42:26;;;;;;;2.47;1.90;;;24.60;55.20;;;;;;6078030;23;20164;-85
2021/08/24 06:44:59;;;;;;;2.00;1.70;;;24.60;55.20;;;;;;6080509;23;20379;-84
2021/08/24 06:47:25;;;;;;;3.50;2.03;;;24.70;55.30;;;;;;6077542;23;20158;-84
2021/08/24 06:49:53;;;;;;;1.93;1.53;;;24.60;55.20;;;;;;6078033;23;20402;-84
2021/08/24 06:52:22;;;;;;;2.57;1.70;;;24.70;55.30;;;;;;6079878;23;20151;-84
2021/08/24 07:01:01;;;;;;;2.80;1.90;;;24.80;55.30;;;;;;6083849;23;20363;-84
2021/08/24 07:03:27;;;;;;;2.70;1.83;;;24.70;55.30;;;;;;6078162;23;20402;-85
2021/08/24 07:05:52;;;;;;;2.13;1.60;;;24.80;55.30;;;;;;6081282;23;20386;-86
2021/08/24 07:08:24;;;;;;;1.90;1.40;;;24.80;55.30;;;;;;6082637;23;20162;-85
2021/08/24 07:11:01;;;;;;;5.23;2.20;;;24.80;55.20;;;;;;6080175;23;20158;-86
2021/08/24 07:13:28;;;;;;;4.13;1.97;;;24.90;55.20;;;;;;6079239;23;20386;-85
2021/08/24 07:15:54;;;;;;;2.50;1.90;;;24.90;55.20;;;;;;6081362;23;20423;-85
2021/08/24 07:18:26;;;;;;;3.10;2.47;;;24.90;55.20;;;;;;6075904;23;20394;-85
2021/08/24 07:20:54;;;;;;;2.10;1.73;;;24.90;55.20;;;;;;6077030;23;20386;-85
2021/08/24 07:23:21;;;;;;;3.00;2.10;;;24.90;55.20;;;;;;6075490;23;20387;-85
2021/08/24 07:25:47;;;;;;;2.97;2.00;;;24.90;55.10;;;;;;6075071;23;20394;-85
2021/08/24 07:28:14;;;;;;;3.60;2.00;;;25.00;55.20;;;;;;6075632;23;20414;-83
2021/08/24 07:30:43;;;;;;;4.40;2.30;;;25.00;55.20;;;;;;6078589;23;20383;-83
2021/08/24 07:33:13;;;;;;;4.50;1.97;;;24.90;55.20;;;;;;6078270;23;20418;-83
2021/08/24 07:35:42;;;;;;;2.83;1.77;;;24.90;55.30;;;;;;6078646;23;20415;-83
2021/08/24 07:38:08;;;;;;;3.40;1.97;;;24.90;55.30;;;;;;6079796;23;20397;-83
2021/08/24 07:47:06;;;;;;;2.10;1.70;;;25.00;55.40;;;;;;6138424;23;20412;-83
2021/08/24 07:56:06;;;;;;;3.13;2.00;;;24.90;55.50;;;;;;6085198;23;20447;-83
2021/08/24 07:58:35;;;;;;;6.10;2.23;;;24.90;55.50;;;;;;6144368;23;20481;-83
2021/08/24 08:01:07;;;;;;;2.37;1.73;;;24.90;55.50;;;;;;6117537;23;20392;-83
2021/08/24 08:03:46;;;;;;;2.43;1.83;;;25.00;55.50;;;;;;6143785;23;20377;-83
2021/08/24 08:06:14;;;;;;;2.30;1.70;;;24.90;55.40;;;;;;6144871;23;20421;-84
2021/08/24 08:08:51;;;;;;;2.90;2.03;;;25.00;55.50;;;;;;6120432;23;20414;-83
2021/08/24 08:11:29;;;;;;;1.60;1.50;;;25.00;55.50;;;;;;6147043;23;20387;-84
2021/08/24 08:14:16;;;;;;;4.70;2.80;;;24.90;55.50;;;;;;6167802;23;20385;-83
2021/08/24 08:16:47;;;;;;;2.30;1.80;;;25.00;55.50;;;;;;6192050;23;20405;-83
2021/08/24 08:20:08;;;;;;;2.10;1.90;;;25.00;55.60;;;;;;6213664;23;20366;-84
2021/08/24 08:22:52;;;;;;;2.73;1.57;;;25.00;55.50;;;;;;6110896;23;20382;-83
2021/08/24 08:25:21;;;;;;;3.43;1.70;;;25.00;55.60;;;;;;6110771;23;20413;-83
2021/08/24 08:28:48;;;;;;;3.73;2.43;;;25.00;55.60;;;;;;6261449;23;20736;-82
2021/08/24 08:31:24;;;;;;;2.63;1.70;;;25.00;55.50;;;;;;6234625;23;20428;-84
2021/08/24 08:33:52;;;;;;;4.40;1.80;;;25.00;55.60;;;;;;6235130;23;20739;-84
2021/08/24 08:36:43;;;;;;;2.67;2.00;;;25.00;55.60;;;;;;6261522;23;20405;-84
2021/08/24 08:39:38;;;;;;;1.93;1.60;;;25.00;55.50;;;;;;6234626;23;20473;-84
2021/08/24 08:42:31;;;;;;;2.50;2.13;;;25.00;55.60;;;;;;6235576;23;20448;-84
2021/08/24 08:45:03;;;;;;;2.47;1.90;;;25.00;55.60;;;;;;6235358;23;20909;-84
2021/08/24 08:48:09;;;;;;;2.30;1.50;;;25.00;55.60;;;;;;6264403;23;20372;-84
2021/08/24 08:51:11;;;;;;;2.37;1.73;;;25.00;55.50;;;;;;6238674;23;20384;-84
2021/08/24 08:53:45;;;;;;;2.50;2.20;;;25.10;55.60;;;;;;6237075;23;20389;-84
2021/08/24 08:56:47;;;;;;;3.90;1.40;;;25.00;55.60;;;;;;6239563;23;20907;-84
2021/08/24 08:59:40;;;;;;;2.40;1.70;;;25.10;55.70;;;;;;6145067;23;20384;-82
2021/08/24 09:02:26;;;;;;;2.00;1.60;;;25.00;55.60;;;;;;6147365;23;20434;-82
2021/08/24 09:04:56;;;;;;;2.37;1.50;;;25.00;55.60;;;;;;6146135;23;20477;-86
2021/08/24 09:07:39;;;;;;;2.83;1.83;;;25.00;55.60;;;;;;6118291;23;20385;-83
2021/08/24 09:10:25;;;;;;;1.70;1.60;;;25.10;55.60;;;;;;6118352;23;20395;-85
2021/08/24 09:12:59;;;;;;;3.33;2.00;;;25.10;55.50;;;;;;6143188;23;20389;-85
2021/08/24 09:15:45;;;;;;;2.50;1.90;;;25.10;55.50;;;;;;6117452;23;20447;-85
2021/08/24 09:26:07;;;;;;;2.03;1.67;;;25.20;55.50;;;;;;6050819;23;20388;-87
2021/08/24 09:29:01;;;;;;;1.97;1.50;;;25.20;55.60;;;;;;6058663;23;20364;-84
2021/08/24 09:35:15;;;;;;;3.63;1.90;;;25.20;55.70;;;;;;6063003;23;20882;-82
2021/08/24 09:37:47;;;;;;;2.13;1.60;;;25.30;55.70;;;;;;6112079;23;20392;-83
2021/08/24 09:50:38;;;;;;;3.57;1.60;;;25.30;55.80;;;;;;6150193;23;20387;-83
2021/08/24 09:53:40;;;;;;;1.90;1.40;;;25.30;55.80;;;;;;6151438;23;20420;-83
2021/08/24 09:56:31;;;;;;;2.60;2.00;;;25.30;55.80;;;;;;6043364;23;20441;-82
2021/08/24 10:16:48;;;;;;;1.73;1.43;;;25.30;56.00;;;;;;6149857;23;20486;-83
2021/08/24 10:22:54;;;;;;;2.20;1.63;;;25.30;56.00;;;;;;6148865;23;20376;-83
2021/08/24 10:29:31;;;;;;;1.70;1.50;;;25.30;56.00;;;;;;6090279;23;20386;-83
2021/08/24 10:36:18;;;;;;;1.50;1.30;;;25.30;56.00;;;;;;6006336;24;20447;-83
2021/08/24 10:42:41;;;;;;;1.93;1.40;;;25.40;56.10;;;;;;5933040;23;20409;-83
2021/08/24 10:45:43;;;;;;;1.70;1.37;;;25.40;56.10;;;;;;5922559;24;20380;-83
2021/08/24 10:49:08;;;;;;;2.77;1.27;;;25.40;56.10;;;;;;5911095;24;20781;-83
2021/08/24 10:52:24;;;;;;;1.97;1.53;;;25.40;56.10;;;;;;5838787;24;20395;-83
2021/08/24 10:59:09;;;;;;;;;;;;;;;;;;;;;
2021/08/24 11:02:07;;;;;;;1.43;1.20;;;25.40;56.60;;;;;;5762043;25;20381;-83
2021/08/24 11:05:36;;;;;;;2.70;1.50;;;25.40;56.10;;;;;;5756996;24;20469;-83
2021/08/24 11:08:42;;;;;;;3.37;1.60;;;25.40;56.10;;;;;;5814673;24;20415;-83
2021/08/24 11:11:41;;;;;;;2.60;1.50;;;25.40;56.10;;;;;;5822473;24;20366;-83
2021/08/24 11:14:56;;;;;;;1.90;1.70;;;25.40;56.10;;;;;;5846090;24;20383;-83
2021/08/24 11:18:05;;;;;;;2.40;1.90;;;25.40;56.10;;;;;;5867273;24;20451;-83
2021/08/24 11:28:06;;;;;;;1.97;1.40;;;25.40;56.10;;;;;;5813742;24;20375;-85
2021/08/24 11:30:43;;;;;;;2.33;1.50;;;25.40;56.10;;;;;;5898938;24;20396;-85
2021/08/24 11:34:06;;;;;;;;;;;;;;;;;;;;;
2021/08/24 11:36:45;;;;;;;2.33;1.90;;;25.40;56.10;;;;;;5906409;24;21011;-86
2021/08/24 11:39:28;;;;;;;2.63;2.30;;;25.40;56.00;;;;;;5893177;24;20387;-86
2021/08/24 11:42:10;;;;;;;;;;;;;;;;;;;;;
2021/08/24 11:45:07;;;;;;;2.53;2.33;;;25.40;55.90;;;;;;5986128;23;20387;-86
2021/08/24 11:47:59;;;;;;;3.33;2.60;;;25.40;55.90;;;;;;6052390;23;20380;-86
2021/08/24 11:50:41;;;;;;;3.07;2.70;;;25.40;55.80;;;;;;6029914;23;20388;-85
2021/08/24 11:53:44;;;;;;;3.30;3.00;;;25.40;55.80;;;;;;6054426;23;20886;-85
2021/08/24 11:56:45;;;;;;;3.70;3.20;;;25.40;55.70;;;;;;6095787;23;20481;-86
2021/08/24 11:59:59;;;;;;;3.43;2.67;;;25.40;55.70;;;;;;6170104;23;20524;-85
2021/08/24 12:02:50;;;;;;;3.23;2.93;;;25.40;55.70;;;;;;6143048;23;20387;-85
2021/08/24 12:05:29;;;;;;;5.10;3.17;;;25.30;55.70;;;;;;6170510;23;20360;-84
2021/08/24 12:08:19;;;;;;;4.90;3.10;;;25.30;55.70;;;;;;6145611;23;20376;-85
2021/08/24 12:11:06;;;;;;;4.47;3.37;;;25.40;55.70;;;;;;6193643;23;20389;-83
2021/08/24 12:13:34;;;;;;;4.10;3.70;;;25.40;55.70;;;;;;6214737;23;20408;-84
2021/08/24 12:16:31;;;;;;;3.40;3.10;;;25.40;55.70;;;;;;6113267;23;20421;-84
2021/08/24 12:25:33;;;;;;;4.10;3.80;;;25.30;55.80;;;;;;6115348;23;20382;-86
2021/08/24 12:28:28;;;;;;;3.70;3.40;;;25.30;55.80;;;;;;6241535;23;20373;-86
2021/08/24 12:31:16;;;;;;;;;;;;;;;;;;;;;
2021/08/24 12:33:52;;;;;;;4.63;3.83;;;25.30;55.90;;;;;;6114140;23;20378;-86
2021/08/24 12:36:59;;;;;;;4.80;3.83;;;25.20;55.80;;;;;;6214534;23;20424;-87
2021/08/24 12:40:02;;;;;;;4.10;3.70;;;25.30;55.90;;;;;;6114455;23;20354;-85
2021/08/24 12:43:11;;;;;;;3.70;3.40;;;25.20;55.80;;;;;;6169247;23;20378;-86
2021/08/24 12:46:07;;;;;;;3.60;3.30;;;25.20;55.90;;;;;;6114439;23;20378;-84
2021/08/24 12:48:33;;;;;;;4.87;4.07;;;25.20;55.90;;;;;;6211943;23;20401;-84
2021/08/24 12:51:09;;;;;;;5.33;4.10;;;25.10;55.90;;;;;;6114003;23;20382;-83
2021/08/24 12:54:02;;;;;;;5.63;4.00;;;25.20;56.00;;;;;;6212188;23;20386;-83
2021/08/24 12:56:45;;;;;;;5.73;4.60;;;25.10;55.90;;;;;;6216252;23;20421;-83
2021/08/24 12:59:40;;;;;;;9.73;5.10;;;25.20;56.00;;;;;;6212632;23;20700;-84
2021/08/24 13:02:31;;;;;;;11.27;5.33;;;25.10;55.90;;;;;;6060823;23;20383;-83
2021/08/24 13:05:33;;;;;;;8.70;5.80;;;25.10;55.90;;;;;;6061121;23;20386;-83
2021/08/24 13:08:21;;;;;;;12.27;6.93;;;25.10;55.90;;;;;;6061777;23;20379;-83
2021/08/24 13:10:49;;;;;;;17.60;9.33;;;25.10;56.00;;;;;;6059717;23;20386;-83
2021/08/24 13:13:45;;;;;;;13.37;7.87;;;25.10;56.00;;;;;;6086876;23;20379;-83
2021/08/24 13:23:05;;;;;;;16.90;10.17;;;25.10;56.00;;;;;;6086474;23;20351;-84
2021/08/24 13:25:56;;;;;;;22.33;11.47;;;25.00;56.00;;;;;;5948610;24;20390;-84
2021/08/24 13:28:31;;;;;;;22.50;12.23;;;25.00;56.00;;;;;;5950894;24;20391;-84
2021/08/24 13:31:23;;;;;;;31.93;13.20;;;25.00;56.10;;;;;;5949095;23;20425;-83
2021/08/24 13:34:40;;;;;;;31.30;14.07;;;25.00;56.10;;;;;;5973455;23;20422;-83
2021/08/24 13:37:07;;;;;;;36.57;14.90;;;25.00;56.10;;;;;;5981447;23;20395;-83
2021/08/24 13:40:04;;;;;;;31.10;14.63;;;25.00;56.20;;;;;;5947917;23;20383;-83
2021/08/24 13:42:44;;;;;;;32.70;15.03;;;25.00;56.20;;;;;;5973777;23;20385;-83
2021/08/24 13:45:19;;;;;;;28.93;15.60;;;24.90;56.20;;;;;;5948386;24;20390;-83
2021/08/24 13:47:54;;;;;;;34.07;16.07;;;24.90;56.30;;;;;;5971536;23;20386;-83
2021/08/24 13:50:55;;;;;;;34.00;16.73;;;24.90;56.30;;;;;;5926955;24;20398;-83
2021/08/24 13:53:36;;;;;;;31.37;14.43;;;24.90;56.30;;;;;;5976677;23;20411;-83
2021/08/24 13:56:15;;;;;;;30.30;16.97;;;24.90;56.40;;;;;;5970400;24;20425;-83
2021/08/24 13:58:44;;;;;;;35.17;17.40;;;24.90;56.40;;;;;;5970847;24;20363;-83
2021/08/24 14:01:15;;;;;;;40.20;17.17;;;24.90;56.50;;;;;;6129489;23;20397;-82
2021/08/24 14:10:32;;;;;;;41.07;17.83;;;24.90;56.60;;;;;;6117390;23;20349;-83
2021/08/24 14:13:05;;;;;;;37.40;17.20;;;24.80;56.60;;;;;;6069211;23;20457;-83
2021/08/24 14:15:46;;;;;;;;;;;;;;;;;;;;;
2021/08/24 14:21:42;;;;;;;25.37;14.93;;;24.80;56.60;;;;;;6117301;23;20367;-83
2021/08/24 14:27:11;;;;;;;33.70;16.97;;;24.80;56.70;;;;;;6051424;23;20386;-83
2021/08/24 14:29:51;;;;;;;35.27;16.53;;;24.80;56.80;;;;;;6085386;23;20370;-83
2021/08/24 14:36:38;;;;;;;;;;;;;;;;;;;;;
2021/08/24 14:39:35;;;;;;;30.13;14.67;;;24.70;56.80;;;;;;6115342;23;20389;-82
2021/08/24 14:42:29;;;;;;;32.03;16.13;;;24.70;56.80;;;;;;6116858;23;20398;-83
2021/08/24 14:48:21;;;;;;;31.83;15.37;;;24.70;56.90;;;;;;5984685;24;20396;-84
2021/08/24 14:50:55;;;;;;;29.43;15.73;;;24.60;56.90;;;;;;5997970;23;20431;-85
2021/08/24 14:53:38;;;;;;;30.00;15.30;;;24.70;57.00;;;;;;6092696;23;20392;-83
2021/08/24 14:56:07;;;;;;;29.10;14.43;;;24.70;56.90;;;;;;6069277;23;20433;-84
2021/08/24 14:58:42;;;;;;;30.00;15.63;;;24.70;57.00;;;;;;6069621;23;20425;-84
2021/08/24 15:01:29;;;;;;;;;;;;;;;;;;;;;
2021/08/24 15:04:26;;;;;;;25.53;13.67;;;24.70;57.00;;;;;;6146040;23;20869;-83
2021/08/24 15:07:10;;;;;;;27.47;14.37;;;24.60;56.90;;;;;;6146319;23;20477;-83
2021/08/24 15:09:47;;;;;;;26.57;14.93;;;24.70;57.00;;;;;;6144959;23;20361;-84
2021/08/24 15:12:37;;;;;;;32.57;15.63;;;24.60;57.00;;;;;;6141538;23;20396;-85
2021/08/24 15:18:48;;;;;;;23.07;12.60;;;24.70;56.90;;;;;;6141532;23;20381;-84
2021/08/24 15:22:09;;;;;;;29.47;13.70;;;24.70;56.90;;;;;;6124675;23;20389;-83
2021/08/24 15:24:44;;;;;;;27.23;15.27;;;24.70;56.80;;;;;;6196187;23;20366;-82
2021/08/24 15:27:35;;;;;;;23.87;12.13;;;24.70;56.90;;;;;;6241285;23;20361;-82
2021/08/24 15:30:12;;;;;;;23.70;13.13;;;24.80;56.80;;;;;;6120820;23;20381;-84
2021/08/24 15:33:01;;;;;;;20.13;11.90;;;24.80;56.80;;;;;;6141847;23;20373;-85
2021/08/24 15:35:31;;;;;;;21.23;10.93;;;24.80;56.70;;;;;;6141030;23;20416;-85
2021/08/24 15:40:49;;;;;;;17.90;11.50;;;24.90;56.70;;;;;;6117237;23;20464;-85
2021/08/24 15:43:39;;;;;;;20.63;11.83;;;24.80;56.60;;;;;;6089981;23;20371;-86
2021/08/24 15:46:09;;;;;;;19.70;10.87;;;24.90;56.50;;;;;;6082232;23;20162;-85
2021/08/24 15:48:42;;;;;;;23.83;12.53;;;24.90;56.50;;;;;;6090411;23;20462;-85
2021/08/24 15:51:19;;;;;;;20.70;10.50;;;24.90;56.50;;;;;;6087222;23;20382;-86